sensor_id;sensor_type;location;lat;lon;timestamp;P1;durP1;ratioP1;P2;durP2;ratioP2
19107;SDS011;9686;48.832;9.126;2022-11-20T00:01:16;17.37;;;8.23;;
19107;SDS011;9686;48.832;9.126;2022-11-20T00:03:46;26.53;;;9.00;;
19107;SDS011;9686;48.832;9.126;2022-11-20T00:06:15;12.20;;;8.30;;
19107;SDS011;9686;48.832;9.126;2022-11-20T00:08:42;14.23;;;8.23;;
19107;SDS011;9686;48.832;9.126;2022-11-20T00:11:18;16.20;;;9.53;;
19107;SDS011;9686;48.832;9.126;2022-11-20T00:13:46;16.30;;;9.20;;
19107;SDS011;9686;48.832;9.126;2022-11-20T00:16:14;22.33;;;10.07;;
19107;SDS011;9686;48.832;9.126;2022-11-20T00:18:41;19.60;;;9.23;;
19107;SDS011;9686;48.832;9.126;2022-11-20T00:21:11;17.80;;;9.43;;
19107;SDS011;9686;48.832;9.126;2022-11-20T00:23:38;15.37;;;8.77;;
19107;SDS011;9686;48.832;9.126;2022-11-20T00:26:04;13.30;;;8.50;;
19107;SDS011;9686;48.832;9.126;2022-11-20T00:28:30;13.33;;;8.50;;
19107;SDS011;9686;48.832;9.126;2022-11-20T00:31:06;17.83;;;9.07;;
19107;SDS011;9686;48.832;9.126;2022-11-20T00:33:33;16.90;;;8.50;;
19107;SDS011;9686;48.832;9.126;2022-11-20T00:36:02;21.97;;;11.47;;
19107;SDS011;9686;48.832;9.126;2022-11-20T00:38:29;12.43;;;8.97;;
19107;SDS011;9686;48.832;9.126;2022-11-20T00:40:59;16.97;;;9.27;;
19107;SDS011;9686;48.832;9.126;2022-11-20T00:43:35;14.53;;;8.17;;
19107;SDS011;9686;48.832;9.126;2022-11-20T00:46:02;10.97;;;8.27;;
19107;SDS011;9686;48.832;9.126;2022-11-20T00:48:30;16.80;;;7.97;;
19107;SDS011;9686;48.832;9.126;2022-11-20T00:50:56;12.23;;;8.03;;
19107;SDS011;9686;48.832;9.126;2022-11-20T00:53:22;12.53;;;8.67;;
19107;SDS011;9686;48.832;9.126;2022-11-20T00:56:02;10.53;;;8.03;;
19107;SDS011;9686;48.832;9.126;2022-11-20T00:58:30;14.20;;;8.10;;
19107;SDS011;9686;48.832;9.126;2022-11-20T01:01:04;9.90;;;7.63;;
19107;SDS011;9686;48.832;9.126;2022-11-20T01:03:38;11.67;;;7.97;;
19107;SDS011;9686;48.832;9.126;2022-11-20T01:06:06;9.43;;;6.90;;
19107;SDS011;9686;48.832;9.126;2022-11-20T01:08:34;10.90;;;7.63;;
19107;SDS011;9686;48.832;9.126;2022-11-20T01:11:01;9.77;;;7.07;;
19107;SDS011;9686;48.832;9.126;2022-11-20T01:13:29;10.23;;;7.37;;
19107;SDS011;9686;48.832;9.126;2022-11-20T01:16:23;9.70;;;7.30;;
19107;SDS011;9686;48.832;9.126;2022-11-20T01:18:50;7.57;;;6.50;;
19107;SDS011;9686;48.832;9.126;2022-11-20T01:21:18;9.90;;;7.20;;
19107;SDS011;9686;48.832;9.126;2022-11-20T01:23:46;9.77;;;7.13;;
19107;SDS011;9686;48.832;9.126;2022-11-20T01:26:13;9.47;;;7.17;;
19107;SDS011;9686;48.832;9.126;2022-11-20T01:28:58;10.67;;;7.67;;
19107;SDS011;9686;48.832;9.126;2022-11-20T01:31:28;9.73;;;7.50;;
19107;SDS011;9686;48.832;9.126;2022-11-20T01:33:57;8.63;;;6.57;;
19107;SDS011;9686;48.832;9.126;2022-11-20T01:36:24;12.17;;;6.53;;
19107;SDS011;9686;48.832;9.126;2022-11-20T01:38:52;9.60;;;6.67;;
19107;SDS011;9686;48.832;9.126;2022-11-20T01:41:18;8.07;;;6.20;;
19107;SDS011;9686;48.832;9.126;2022-11-20T01:44:03;7.50;;;6.63;;
19107;SDS011;9686;48.832;9.126;2022-11-20T01:46:30;8.33;;;6.33;;
19107;SDS011;9686;48.832;9.126;2022-11-20T01:49:04;10.00;;;7.33;;
19107;SDS011;9686;48.832;9.126;2022-11-20T01:51:39;8.00;;;6.77;;
19107;SDS011;9686;48.832;9.126;2022-11-20T01:54:10;8.83;;;6.53;;
19107;SDS011;9686;48.832;9.126;2022-11-20T01:56:41;8.70;;;5.83;;
19107;SDS011;9686;48.832;9.126;2022-11-20T01:59:09;7.47;;;5.93;;
19107;SDS011;9686;48.832;9.126;2022-11-20T02:01:38;6.20;;;5.37;;
19107;SDS011;9686;48.832;9.126;2022-11-20T02:04:04;7.13;;;5.83;;
19107;SDS011;9686;48.832;9.126;2022-11-20T02:06:44;7.93;;;6.03;;
19107;SDS011;9686;48.832;9.126;2022-11-20T02:09:14;7.23;;;5.57;;
19107;SDS011;9686;48.832;9.126;2022-11-20T02:11:40;7.83;;;5.67;;
19107;SDS011;9686;48.832;9.126;2022-11-20T02:14:06;6.93;;;5.63;;
19107;SDS011;9686;48.832;9.126;2022-11-20T02:16:37;6.97;;;6.03;;
19107;SDS011;9686;48.832;9.126;2022-11-20T02:19:09;8.10;;;6.23;;
19107;SDS011;9686;48.832;9.126;2022-11-20T02:24:11;8.07;;;6.20;;
19107;SDS011;9686;48.832;9.126;2022-11-20T02:29:24;7.90;;;6.10;;
19107;SDS011;9686;48.832;9.126;2022-11-20T02:31:53;8.90;;;6.57;;
19107;SDS011;9686;48.832;9.126;2022-11-20T02:34:21;8.03;;;5.93;;
19107;SDS011;9686;48.832;9.126;2022-11-20T02:36:46;7.93;;;6.17;;
19107;SDS011;9686;48.832;9.126;2022-11-20T02:39:14;6.90;;;6.20;;
19107;SDS011;9686;48.832;9.126;2022-11-20T02:41:41;7.30;;;5.53;;
19107;SDS011;9686;48.832;9.126;2022-11-20T02:44:07;7.43;;;6.40;;
19107;SDS011;9686;48.832;9.126;2022-11-20T02:46:32;12.00;;;6.27;;
19107;SDS011;9686;48.832;9.126;2022-11-20T02:48:58;9.67;;;6.43;;
19107;SDS011;9686;48.832;9.126;2022-11-20T02:51:23;10.33;;;5.43;;
19107;SDS011;9686;48.832;9.126;2022-11-20T02:53:49;6.83;;;5.47;;
19107;SDS011;9686;48.832;9.126;2022-11-20T02:56:14;6.13;;;5.27;;
19107;SDS011;9686;48.832;9.126;2022-11-20T02:58:40;7.00;;;5.87;;
19107;SDS011;9686;48.832;9.126;2022-11-20T03:01:12;6.03;;;5.30;;
19107;SDS011;9686;48.832;9.126;2022-11-20T03:03:37;8.00;;;6.00;;
19107;SDS011;9686;48.832;9.126;2022-11-20T03:06:03;6.27;;;5.23;;
19107;SDS011;9686;48.832;9.126;2022-11-20T03:08:29;6.97;;;5.63;;
19107;SDS011;9686;48.832;9.126;2022-11-20T03:10:54;5.83;;;5.00;;
19107;SDS011;9686;48.832;9.126;2022-11-20T03:13:19;6.87;;;5.33;;
19107;SDS011;9686;48.832;9.126;2022-11-20T03:15:45;7.47;;;5.37;;
19107;SDS011;9686;48.832;9.126;2022-11-20T03:18:10;6.83;;;4.70;;
19107;SDS011;9686;48.832;9.126;2022-11-20T03:20:35;2.60;;;2.40;;
19107;SDS011;9686;48.832;9.126;2022-11-20T03:23:01;5.00;;;3.30;;
19107;SDS011;9686;48.832;9.126;2022-11-20T03:25:26;2.83;;;2.50;;
19107;SDS011;9686;48.832;9.126;2022-11-20T03:27:52;5.47;;;3.40;;
19107;SDS011;9686;48.832;9.126;2022-11-20T03:30:17;4.07;;;3.47;;
19107;SDS011;9686;48.832;9.126;2022-11-20T03:32:42;4.27;;;3.13;;
19107;SDS011;9686;48.832;9.126;2022-11-20T03:35:08;2.97;;;2.63;;
19107;SDS011;9686;48.832;9.126;2022-11-20T03:37:34;4.13;;;2.17;;
19107;SDS011;9686;48.832;9.126;2022-11-20T03:39:59;4.00;;;2.33;;
19107;SDS011;9686;48.832;9.126;2022-11-20T03:42:24;3.27;;;2.20;;
19107;SDS011;9686;48.832;9.126;2022-11-20T03:45:08;2.13;;;1.77;;
19107;SDS011;9686;48.832;9.126;2022-11-20T03:47:33;2.73;;;2.20;;
19107;SDS011;9686;48.832;9.126;2022-11-20T03:49:59;2.40;;;2.20;;
19107;SDS011;9686;48.832;9.126;2022-11-20T03:52:24;3.90;;;2.30;;
19107;SDS011;9686;48.832;9.126;2022-11-20T03:54:49;2.70;;;2.10;;
19107;SDS011;9686;48.832;9.126;2022-11-20T03:57:15;3.10;;;2.30;;
19107;SDS011;9686;48.832;9.126;2022-11-20T03:59:40;2.77;;;2.20;;
19107;SDS011;9686;48.832;9.126;2022-11-20T04:02:05;3.10;;;2.30;;
19107;SDS011;9686;48.832;9.126;2022-11-20T04:04:31;2.10;;;1.80;;
19107;SDS011;9686;48.832;9.126;2022-11-20T04:06:56;4.13;;;2.67;;
19107;SDS011;9686;48.832;9.126;2022-11-20T04:09:21;6.43;;;2.70;;
19107;SDS011;9686;48.832;9.126;2022-11-20T04:11:47;2.80;;;2.10;;
19107;SDS011;9686;48.832;9.126;2022-11-20T04:14:13;3.03;;;2.10;;
19107;SDS011;9686;48.832;9.126;2022-11-20T04:16:39;2.83;;;2.30;;
19107;SDS011;9686;48.832;9.126;2022-11-20T04:19:06;2.37;;;1.93;;
19107;SDS011;9686;48.832;9.126;2022-11-20T04:21:34;2.40;;;2.20;;
19107;SDS011;9686;48.832;9.126;2022-11-20T04:24:00;3.03;;;2.73;;
19107;SDS011;9686;48.832;9.126;2022-11-20T04:26:26;3.03;;;2.50;;
19107;SDS011;9686;48.832;9.126;2022-11-20T04:28:53;3.17;;;2.20;;
19107;SDS011;9686;48.832;9.126;2022-11-20T04:31:23;3.00;;;2.30;;
19107;SDS011;9686;48.832;9.126;2022-11-20T04:33:50;2.63;;;2.43;;
19107;SDS011;9686;48.832;9.126;2022-11-20T04:36:20;4.00;;;2.30;;
19107;SDS011;9686;48.832;9.126;2022-11-20T04:38:50;5.70;;;2.40;;
19107;SDS011;9686;48.832;9.126;2022-11-20T04:41:20;5.37;;;2.50;;
19107;SDS011;9686;48.832;9.126;2022-11-20T04:43:47;2.80;;;2.50;;
19107;SDS011;9686;48.832;9.126;2022-11-20T04:46:14;3.07;;;2.27;;
19107;SDS011;9686;48.832;9.126;2022-11-20T04:48:40;3.97;;;2.60;;
19107;SDS011;9686;48.832;9.126;2022-11-20T04:51:05;2.77;;;2.30;;
19107;SDS011;9686;48.832;9.126;2022-11-20T04:53:31;2.60;;;2.40;;
19107;SDS011;9686;48.832;9.126;2022-11-20T04:56:00;2.37;;;2.07;;
19107;SDS011;9686;48.832;9.126;2022-11-20T04:58:26;2.87;;;2.47;;
19107;SDS011;9686;48.832;9.126;2022-11-20T05:00:52;5.67;;;2.27;;
19107;SDS011;9686;48.832;9.126;2022-11-20T05:03:17;2.60;;;2.37;;
19107;SDS011;9686;48.832;9.126;2022-11-20T05:05:42;3.20;;;2.80;;
19107;SDS011;9686;48.832;9.126;2022-11-20T05:08:08;4.00;;;2.53;;
19107;SDS011;9686;48.832;9.126;2022-11-20T05:10:33;2.57;;;2.30;;
19107;SDS011;9686;48.832;9.126;2022-11-20T05:12:58;2.97;;;2.50;;
19107;SDS011;9686;48.832;9.126;2022-11-20T05:15:24;3.90;;;2.60;;
19107;SDS011;9686;48.832;9.126;2022-11-20T05:17:50;2.27;;;2.07;;
19107;SDS011;9686;48.832;9.126;2022-11-20T05:20:16;3.03;;;2.50;;
19107;SDS011;9686;48.832;9.126;2022-11-20T05:22:42;3.20;;;2.27;;
19107;SDS011;9686;48.832;9.126;2022-11-20T05:25:08;2.53;;;2.27;;
19107;SDS011;9686;48.832;9.126;2022-11-20T05:27:34;3.50;;;2.23;;
19107;SDS011;9686;48.832;9.126;2022-11-20T05:29:59;2.83;;;2.20;;
19107;SDS011;9686;48.832;9.126;2022-11-20T05:32:25;2.40;;;2.20;;
19107;SDS011;9686;48.832;9.126;2022-11-20T05:34:50;4.57;;;2.40;;
19107;SDS011;9686;48.832;9.126;2022-11-20T05:37:19;3.07;;;2.33;;
19107;SDS011;9686;48.832;9.126;2022-11-20T05:39:44;2.70;;;2.10;;
19107;SDS011;9686;48.832;9.126;2022-11-20T05:42:09;3.43;;;2.40;;
19107;SDS011;9686;48.832;9.126;2022-11-20T05:44:53;2.33;;;2.10;;
19107;SDS011;9686;48.832;9.126;2022-11-20T05:47:19;3.43;;;2.40;;
19107;SDS011;9686;48.832;9.126;2022-11-20T05:49:44;2.80;;;2.40;;
19107;SDS011;9686;48.832;9.126;2022-11-20T05:52:09;2.50;;;2.17;;
19107;SDS011;9686;48.832;9.126;2022-11-20T05:54:35;3.03;;;2.40;;
19107;SDS011;9686;48.832;9.126;2022-11-20T05:57:00;3.27;;;2.30;;
19107;SDS011;9686;48.832;9.126;2022-11-20T05:59:25;3.27;;;1.90;;
19107;SDS011;9686;48.832;9.126;2022-11-20T06:01:51;2.67;;;2.10;;
19107;SDS011;9686;48.832;9.126;2022-11-20T06:04:16;2.67;;;1.80;;
19107;SDS011;9686;48.832;9.126;2022-11-20T06:06:41;2.37;;;2.07;;
19107;SDS011;9686;48.832;9.126;2022-11-20T06:09:06;2.73;;;2.27;;
19107;SDS011;9686;48.832;9.126;2022-11-20T06:11:32;2.73;;;2.10;;
19107;SDS011;9686;48.832;9.126;2022-11-20T06:13:57;4.50;;;2.43;;
19107;SDS011;9686;48.832;9.126;2022-11-20T06:16:22;3.67;;;2.20;;
19107;SDS011;9686;48.832;9.126;2022-11-20T06:18:48;2.80;;;2.27;;
19107;SDS011;9686;48.832;9.126;2022-11-20T06:21:16;4.53;;;2.10;;
19107;SDS011;9686;48.832;9.126;2022-11-20T06:23:43;3.23;;;2.30;;
19107;SDS011;9686;48.832;9.126;2022-11-20T06:26:10;3.87;;;2.10;;
19107;SDS011;9686;48.832;9.126;2022-11-20T06:28:40;2.60;;;2.40;;
19107;SDS011;9686;48.832;9.126;2022-11-20T06:31:06;2.40;;;1.90;;
19107;SDS011;9686;48.832;9.126;2022-11-20T06:33:34;2.23;;;1.87;;
19107;SDS011;9686;48.832;9.126;2022-11-20T06:36:00;2.60;;;1.80;;
19107;SDS011;9686;48.832;9.126;2022-11-20T06:38:27;2.93;;;1.70;;
19107;SDS011;9686;48.832;9.126;2022-11-20T06:40:52;6.33;;;1.90;;
19107;SDS011;9686;48.832;9.126;2022-11-20T06:43:18;2.37;;;2.00;;
19107;SDS011;9686;48.832;9.126;2022-11-20T06:45:43;1.73;;;1.50;;
19107;SDS011;9686;48.832;9.126;2022-11-20T06:48:09;1.93;;;1.70;;
19107;SDS011;9686;48.832;9.126;2022-11-20T06:50:35;2.20;;;1.70;;
19107;SDS011;9686;48.832;9.126;2022-11-20T06:53:02;2.10;;;1.90;;
19107;SDS011;9686;48.832;9.126;2022-11-20T06:55:28;3.83;;;1.60;;
19107;SDS011;9686;48.832;9.126;2022-11-20T06:57:54;2.00;;;1.40;;
19107;SDS011;9686;48.832;9.126;2022-11-20T07:00:19;1.80;;;1.60;;
19107;SDS011;9686;48.832;9.126;2022-11-20T07:02:45;1.70;;;1.40;;
19107;SDS011;9686;48.832;9.126;2022-11-20T07:05:10;2.77;;;1.60;;
19107;SDS011;9686;48.832;9.126;2022-11-20T07:07:35;1.70;;;1.30;;
19107;SDS011;9686;48.832;9.126;2022-11-20T07:10:01;2.70;;;1.60;;
19107;SDS011;9686;48.832;9.126;2022-11-20T07:12:26;1.57;;;1.40;;
19107;SDS011;9686;48.832;9.126;2022-11-20T07:14:51;4.20;;;1.57;;
19107;SDS011;9686;48.832;9.126;2022-11-20T07:17:16;1.70;;;1.40;;
19107;SDS011;9686;48.832;9.126;2022-11-20T07:19:42;3.73;;;1.60;;
19107;SDS011;9686;48.832;9.126;2022-11-20T07:22:08;2.13;;;1.50;;
19107;SDS011;9686;48.832;9.126;2022-11-20T07:24:33;1.60;;;1.50;;
19107;SDS011;9686;48.832;9.126;2022-11-20T07:26:59;1.87;;;1.50;;
19107;SDS011;9686;48.832;9.126;2022-11-20T07:29:25;2.67;;;1.40;;
19107;SDS011;9686;48.832;9.126;2022-11-20T07:31:50;2.43;;;1.43;;
19107;SDS011;9686;48.832;9.126;2022-11-20T07:34:15;2.00;;;1.50;;
19107;SDS011;9686;48.832;9.126;2022-11-20T07:36:41;2.27;;;1.63;;
19107;SDS011;9686;48.832;9.126;2022-11-20T07:39:06;3.37;;;2.57;;
19107;SDS011;9686;48.832;9.126;2022-11-20T07:41:32;2.13;;;1.53;;
19107;SDS011;9686;48.832;9.126;2022-11-20T07:43:57;2.80;;;1.80;;
19107;SDS011;9686;48.832;9.126;2022-11-20T07:46:23;1.60;;;1.50;;
19107;SDS011;9686;48.832;9.126;2022-11-20T07:48:48;2.50;;;1.50;;
19107;SDS011;9686;48.832;9.126;2022-11-20T07:51:14;2.10;;;1.80;;
19107;SDS011;9686;48.832;9.126;2022-11-20T07:53:39;1.97;;;1.60;;
19107;SDS011;9686;48.832;9.126;2022-11-20T07:56:04;2.00;;;1.80;;
19107;SDS011;9686;48.832;9.126;2022-11-20T07:58:30;1.67;;;1.57;;
19107;SDS011;9686;48.832;9.126;2022-11-20T08:00:57;1.77;;;1.53;;
19107;SDS011;9686;48.832;9.126;2022-11-20T08:03:26;2.70;;;1.90;;
19107;SDS011;9686;48.832;9.126;2022-11-20T08:05:52;2.93;;;1.70;;
19107;SDS011;9686;48.832;9.126;2022-11-20T08:08:17;1.97;;;1.77;;
19107;SDS011;9686;48.832;9.126;2022-11-20T08:10:42;2.73;;;1.90;;
19107;SDS011;9686;48.832;9.126;2022-11-20T08:13:08;3.40;;;1.97;;
19107;SDS011;9686;48.832;9.126;2022-11-20T08:15:52;5.70;;;4.07;;
19107;SDS011;9686;48.832;9.126;2022-11-20T08:18:17;4.27;;;3.33;;
19107;SDS011;9686;48.832;9.126;2022-11-20T08:20:43;3.03;;;1.87;;
19107;SDS011;9686;48.832;9.126;2022-11-20T08:23:08;3.77;;;2.70;;
19107;SDS011;9686;48.832;9.126;2022-11-20T08:25:35;1.83;;;1.60;;
19107;SDS011;9686;48.832;9.126;2022-11-20T08:28:02;2.40;;;1.43;;
19107;SDS011;9686;48.832;9.126;2022-11-20T08:30:29;5.43;;;2.13;;
19107;SDS011;9686;48.832;9.126;2022-11-20T08:33:00;5.47;;;4.23;;
19107;SDS011;9686;48.832;9.126;2022-11-20T08:35:32;2.10;;;1.20;;
19107;SDS011;9686;48.832;9.126;2022-11-20T08:37:59;2.27;;;1.40;;
19107;SDS011;9686;48.832;9.126;2022-11-20T08:40:25;3.00;;;2.70;;
19107;SDS011;9686;48.832;9.126;2022-11-20T08:42:50;1.47;;;1.13;;
19107;SDS011;9686;48.832;9.126;2022-11-20T08:45:16;2.30;;;1.20;;
19107;SDS011;9686;48.832;9.126;2022-11-20T08:47:43;1.13;;;1.03;;
19107;SDS011;9686;48.832;9.126;2022-11-20T08:50:10;1.40;;;1.10;;
19107;SDS011;9686;48.832;9.126;2022-11-20T08:52:36;0.93;;;0.93;;
19107;SDS011;9686;48.832;9.126;2022-11-20T08:55:03;1.03;;;0.93;;
19107;SDS011;9686;48.832;9.126;2022-11-20T08:57:31;3.70;;;0.90;;
19107;SDS011;9686;48.832;9.126;2022-11-20T08:59:57;1.60;;;1.07;;
19107;SDS011;9686;48.832;9.126;2022-11-20T09:02:22;1.10;;;1.00;;
19107;SDS011;9686;48.832;9.126;2022-11-20T09:04:47;2.37;;;0.97;;
19107;SDS011;9686;48.832;9.126;2022-11-20T09:07:13;0.73;;;0.73;;
19107;SDS011;9686;48.832;9.126;2022-11-20T09:09:38;0.80;;;0.60;;
19107;SDS011;9686;48.832;9.126;2022-11-20T09:12:03;1.63;;;0.77;;
19107;SDS011;9686;48.832;9.126;2022-11-20T09:14:29;1.80;;;0.73;;
19107;SDS011;9686;48.832;9.126;2022-11-20T09:16:55;0.77;;;0.77;;
19107;SDS011;9686;48.832;9.126;2022-11-20T09:19:21;0.90;;;0.80;;
19107;SDS011;9686;48.832;9.126;2022-11-20T09:21:48;0.80;;;0.73;;
19107;SDS011;9686;48.832;9.126;2022-11-20T09:24:14;1.13;;;0.80;;
19107;SDS011;9686;48.832;9.126;2022-11-20T09:26:39;0.73;;;0.73;;
19107;SDS011;9686;48.832;9.126;2022-11-20T09:29:04;1.20;;;0.80;;
19107;SDS011;9686;48.832;9.126;2022-11-20T09:31:30;0.73;;;0.60;;
19107;SDS011;9686;48.832;9.126;2022-11-20T09:33:56;0.60;;;0.60;;
19107;SDS011;9686;48.832;9.126;2022-11-20T09:36:21;0.60;;;0.60;;
19107;SDS011;9686;48.832;9.126;2022-11-20T09:38:47;0.57;;;0.57;;
19107;SDS011;9686;48.832;9.126;2022-11-20T09:41:36;0.83;;;0.80;;
19107;SDS011;9686;48.832;9.126;2022-11-20T09:47:08;0.83;;;0.70;;
19107;SDS011;9686;48.832;9.126;2022-11-20T09:49:58;1.07;;;0.90;;
19107;SDS011;9686;48.832;9.126;2022-11-20T09:55:18;0.73;;;0.60;;
19107;SDS011;9686;48.832;9.126;2022-11-20T09:57:45;0.60;;;0.53;;
19107;SDS011;9686;48.832;9.126;2022-11-20T10:00:13;1.07;;;1.03;;
19107;SDS011;9686;48.832;9.126;2022-11-20T10:05:06;1.47;;;1.20;;
19107;SDS011;9686;48.832;9.126;2022-11-20T10:10:21;1.77;;;1.10;;
19107;SDS011;9686;48.832;9.126;2022-11-20T10:24:14;3.67;;;1.20;;
19107;SDS011;9686;48.832;9.126;2022-11-20T10:30:12;1.90;;;1.40;;
19107;SDS011;9686;48.832;9.126;2022-11-20T10:32:40;2.37;;;1.67;;
19107;SDS011;9686;48.832;9.126;2022-11-20T10:37:41;1.60;;;1.00;;
19107;SDS011;9686;48.832;9.126;2022-11-20T10:40:23;1.10;;;1.00;;
19107;SDS011;9686;48.832;9.126;2022-11-20T10:43:44;1.83;;;1.10;;
19107;SDS011;9686;48.832;9.126;2022-11-20T10:46:07;1.33;;;0.97;;
19107;SDS011;9686;48.832;9.126;2022-11-20T10:48:39;0.93;;;0.80;;
19107;SDS011;9686;48.832;9.126;2022-11-20T11:02:01;1.60;;;1.23;;
19107;SDS011;9686;48.832;9.126;2022-11-20T11:04:37;1.40;;;1.30;;
19107;SDS011;9686;48.832;9.126;2022-11-20T11:07:23;1.10;;;1.00;;
19107;SDS011;9686;48.832;9.126;2022-11-20T11:09:53;1.63;;;1.30;;
19107;SDS011;9686;48.832;9.126;2022-11-20T11:12:20;2.03;;;1.30;;
19107;SDS011;9686;48.832;9.126;2022-11-20T11:17:32;1.40;;;1.30;;
19107;SDS011;9686;48.832;9.126;2022-11-20T11:25:28;3.23;;;2.10;;
19107;SDS011;9686;48.832;9.126;2022-11-20T11:27:56;2.60;;;1.77;;
19107;SDS011;9686;48.832;9.126;2022-11-20T11:30:24;2.30;;;2.00;;
19107;SDS011;9686;48.832;9.126;2022-11-20T11:33:01;2.90;;;2.30;;
19107;SDS011;9686;48.832;9.126;2022-11-20T11:35:29;2.77;;;2.50;;
19107;SDS011;9686;48.832;9.126;2022-11-20T11:38:01;5.13;;;2.43;;
19107;SDS011;9686;48.832;9.126;2022-11-20T11:40:35;2.50;;;2.30;;
19107;SDS011;9686;48.832;9.126;2022-11-20T11:43:05;2.10;;;1.90;;
19107;SDS011;9686;48.832;9.126;2022-11-20T11:46:01;2.00;;;1.60;;
19107;SDS011;9686;48.832;9.126;2022-11-20T11:48:27;4.13;;;1.40;;
19107;SDS011;9686;48.832;9.126;2022-11-20T11:50:52;1.43;;;1.13;;
19107;SDS011;9686;48.832;9.126;2022-11-20T11:53:19;1.87;;;1.30;;
19107;SDS011;9686;48.832;9.126;2022-11-20T11:56:04;2.10;;;1.57;;
19107;SDS011;9686;48.832;9.126;2022-11-20T11:58:39;2.87;;;1.30;;
19107;SDS011;9686;48.832;9.126;2022-11-20T12:01:17;2.57;;;1.27;;
19107;SDS011;9686;48.832;9.126;2022-11-20T12:04:10;3.50;;;1.70;;
19107;SDS011;9686;48.832;9.126;2022-11-20T12:06:39;2.33;;;1.80;;
19107;SDS011;9686;48.832;9.126;2022-11-20T12:09:11;2.10;;;1.60;;
19107;SDS011;9686;48.832;9.126;2022-11-20T12:11:44;5.63;;;2.33;;
19107;SDS011;9686;48.832;9.126;2022-11-20T12:14:20;3.60;;;1.80;;
19107;SDS011;9686;48.832;9.126;2022-11-20T12:16:51;1.77;;;1.30;;
19107;SDS011;9686;48.832;9.126;2022-11-20T12:19:18;2.33;;;1.43;;
19107;SDS011;9686;48.832;9.126;2022-11-20T12:24:21;2.27;;;0.80;;
19107;SDS011;9686;48.832;9.126;2022-11-20T12:55:53;2.23;;;1.23;;
19107;SDS011;9686;48.832;9.126;2022-11-20T13:07:11;2.43;;;1.10;;
19107;SDS011;9686;48.832;9.126;2022-11-20T13:09:45;3.40;;;1.57;;
19107;SDS011;9686;48.832;9.126;2022-11-20T13:12:23;1.27;;;1.00;;
19107;SDS011;9686;48.832;9.126;2022-11-20T13:20:12;3.60;;;1.00;;
19107;SDS011;9686;48.832;9.126;2022-11-20T13:22:47;1.40;;;0.80;;
19107;SDS011;9686;48.832;9.126;2022-11-20T13:25:25;1.90;;;0.90;;
19107;SDS011;9686;48.832;9.126;2022-11-20T13:27:51;1.00;;;0.90;;
19107;SDS011;9686;48.832;9.126;2022-11-20T13:30:18;1.07;;;0.60;;
19107;SDS011;9686;48.832;9.126;2022-11-20T13:32:49;1.40;;;0.90;;
19107;SDS011;9686;48.832;9.126;2022-11-20T13:38:19;0.80;;;0.80;;
19107;SDS011;9686;48.832;9.126;2022-11-20T13:40:51;0.83;;;0.70;;
19107;SDS011;9686;48.832;9.126;2022-11-20T13:43:39;2.50;;;0.80;;
19107;SDS011;9686;48.832;9.126;2022-11-20T13:46:07;1.50;;;0.70;;
19107;SDS011;9686;48.832;9.126;2022-11-20T13:48:44;0.90;;;0.70;;
19107;SDS011;9686;48.832;9.126;2022-11-20T13:54:04;2.57;;;0.70;;
19107;SDS011;9686;48.832;9.126;2022-11-20T14:02:12;0.93;;;0.73;;
19107;SDS011;9686;48.832;9.126;2022-11-20T14:04:41;1.37;;;0.70;;
19107;SDS011;9686;48.832;9.126;2022-11-20T14:07:09;2.77;;;0.70;;
19107;SDS011;9686;48.832;9.126;2022-11-20T14:09:36;2.00;;;1.10;;
19107;SDS011;9686;48.832;9.126;2022-11-20T14:12:02;1.33;;;1.00;;
19107;SDS011;9686;48.832;9.126;2022-11-20T14:14:28;0.87;;;0.60;;
19107;SDS011;9686;48.832;9.126;2022-11-20T14:19:58;1.10;;;0.80;;
19107;SDS011;9686;48.832;9.126;2022-11-20T14:22:27;0.87;;;0.70;;
19107;SDS011;9686;48.832;9.126;2022-11-20T14:27:37;1.50;;;0.83;;
19107;SDS011;9686;48.832;9.126;2022-11-20T14:30:05;2.33;;;0.87;;
19107;SDS011;9686;48.832;9.126;2022-11-20T14:32:37;1.57;;;1.03;;
19107;SDS011;9686;48.832;9.126;2022-11-20T14:35:06;1.47;;;1.00;;
19107;SDS011;9686;48.832;9.126;2022-11-20T14:37:36;1.07;;;0.83;;
19107;SDS011;9686;48.832;9.126;2022-11-20T14:42:56;3.27;;;1.13;;
19107;SDS011;9686;48.832;9.126;2022-11-20T14:46:03;7.67;;;2.70;;
19107;SDS011;9686;48.832;9.126;2022-11-20T14:51:34;1.67;;;0.90;;
19107;SDS011;9686;48.832;9.126;2022-11-20T14:54:30;3.93;;;1.00;;
19107;SDS011;9686;48.832;9.126;2022-11-20T14:57:00;2.03;;;1.00;;
19107;SDS011;9686;48.832;9.126;2022-11-20T14:59:35;1.90;;;1.10;;
19107;SDS011;9686;48.832;9.126;2022-11-20T15:02:11;1.93;;;1.03;;
19107;SDS011;9686;48.832;9.126;2022-11-20T15:04:58;1.77;;;1.30;;
19107;SDS011;9686;48.832;9.126;2022-11-20T15:07:32;2.13;;;1.20;;
19107;SDS011;9686;48.832;9.126;2022-11-20T15:10:00;3.10;;;1.33;;
19107;SDS011;9686;48.832;9.126;2022-11-20T15:12:34;2.07;;;1.37;;
19107;SDS011;9686;48.832;9.126;2022-11-20T15:15:03;2.27;;;1.60;;
19107;SDS011;9686;48.832;9.126;2022-11-20T15:17:31;1.93;;;1.20;;
19107;SDS011;9686;48.832;9.126;2022-11-20T15:20:02;2.30;;;1.30;;
19107;SDS011;9686;48.832;9.126;2022-11-20T15:22:34;2.57;;;1.47;;
19107;SDS011;9686;48.832;9.126;2022-11-20T15:25:00;3.00;;;1.53;;
19107;SDS011;9686;48.832;9.126;2022-11-20T15:27:26;1.97;;;1.70;;
19107;SDS011;9686;48.832;9.126;2022-11-20T15:29:51;2.43;;;1.77;;
19107;SDS011;9686;48.832;9.126;2022-11-20T15:32:17;2.17;;;1.50;;
19107;SDS011;9686;48.832;9.126;2022-11-20T15:35:01;2.57;;;1.73;;
19107;SDS011;9686;48.832;9.126;2022-11-20T15:38:08;2.77;;;1.60;;
19107;SDS011;9686;48.832;9.126;2022-11-20T15:40:58;3.20;;;1.57;;
19107;SDS011;9686;48.832;9.126;2022-11-20T15:43:37;2.67;;;1.60;;
19107;SDS011;9686;48.832;9.126;2022-11-20T15:46:17;3.07;;;1.50;;
19107;SDS011;9686;48.832;9.126;2022-11-20T15:48:51;3.63;;;1.60;;
19107;SDS011;9686;48.832;9.126;2022-11-20T15:51:38;2.53;;;1.80;;
19107;SDS011;9686;48.832;9.126;2022-11-20T15:54:10;2.27;;;1.43;;
19107;SDS011;9686;48.832;9.126;2022-11-20T15:56:45;4.93;;;2.07;;
19107;SDS011;9686;48.832;9.126;2022-11-20T15:59:12;2.10;;;1.43;;
19107;SDS011;9686;48.832;9.126;2022-11-20T16:01:40;1.70;;;1.57;;
19107;SDS011;9686;48.832;9.126;2022-11-20T16:04:13;2.03;;;1.37;;
19107;SDS011;9686;48.832;9.126;2022-11-20T16:06:41;2.87;;;1.70;;
19107;SDS011;9686;48.832;9.126;2022-11-20T16:09:06;3.97;;;1.60;;
19107;SDS011;9686;48.832;9.126;2022-11-20T16:11:32;2.73;;;1.47;;
19107;SDS011;9686;48.832;9.126;2022-11-20T16:14:00;2.33;;;1.23;;
19107;SDS011;9686;48.832;9.126;2022-11-20T16:16:47;2.47;;;1.50;;
19107;SDS011;9686;48.832;9.126;2022-11-20T16:19:13;2.60;;;1.90;;
19107;SDS011;9686;48.832;9.126;2022-11-20T16:21:38;2.37;;;1.70;;
19107;SDS011;9686;48.832;9.126;2022-11-20T16:24:06;2.97;;;1.73;;
19107;SDS011;9686;48.832;9.126;2022-11-20T16:26:34;2.57;;;2.10;;
19107;SDS011;9686;48.832;9.126;2022-11-20T16:29:00;2.60;;;1.70;;
19107;SDS011;9686;48.832;9.126;2022-11-20T16:31:27;3.23;;;2.00;;
19107;SDS011;9686;48.832;9.126;2022-11-20T16:34:03;3.60;;;1.80;;
19107;SDS011;9686;48.832;9.126;2022-11-20T16:36:46;1.97;;;1.83;;
19107;SDS011;9686;48.832;9.126;2022-11-20T16:39:13;3.03;;;2.13;;
19107;SDS011;9686;48.832;9.126;2022-11-20T16:44:18;2.70;;;1.73;;
19107;SDS011;9686;48.832;9.126;2022-11-20T16:46:57;2.33;;;1.90;;
19107;SDS011;9686;48.832;9.126;2022-11-20T16:49:22;3.27;;;1.83;;
19107;SDS011;9686;48.832;9.126;2022-11-20T16:51:48;2.73;;;1.80;;
19107;SDS011;9686;48.832;9.126;2022-11-20T16:54:14;2.40;;;1.93;;
19107;SDS011;9686;48.832;9.126;2022-11-20T16:56:39;4.03;;;2.23;;
19107;SDS011;9686;48.832;9.126;2022-11-20T16:59:04;3.57;;;1.70;;
19107;SDS011;9686;48.832;9.126;2022-11-20T17:01:31;4.43;;;2.20;;
19107;SDS011;9686;48.832;9.126;2022-11-20T17:03:57;3.37;;;2.30;;
19107;SDS011;9686;48.832;9.126;2022-11-20T17:06:25;2.10;;;1.83;;
19107;SDS011;9686;48.832;9.126;2022-11-20T17:08:53;2.53;;;2.03;;
19107;SDS011;9686;48.832;9.126;2022-11-20T17:11:19;3.87;;;2.40;;
19107;SDS011;9686;48.832;9.126;2022-11-20T17:13:45;4.23;;;2.93;;
19107;SDS011;9686;48.832;9.126;2022-11-20T17:16:13;5.27;;;2.57;;